sensor_id;sensor_type;location;lat;lon;timestamp;pressure;altitude;pressure_sealevel;temperature;humidity
48041;BME280;33815;48.386;11.738;2023-05-19T00:01:09;97024.56;;;7.16;100.00
48041;BME280;33815;48.386;11.738;2023-05-19T00:03:35;97011.13;;;7.11;100.00
48041;BME280;33815;48.386;11.738;2023-05-19T00:06:05;97011.97;;;7.11;100.00
48041;BME280;33815;48.386;11.738;2023-05-19T00:08:32;97015.50;;;7.10;100.00
48041;BME280;33815;48.386;11.738;2023-05-19T00:10:58;97015.38;;;7.12;100.00
48041;BME280;33815;48.386;11.738;2023-05-19T00:13:25;97012.31;;;7.18;100.00
48041;BME280;33815;48.386;11.738;2023-05-19T00:15:50;97004.78;;;7.15;100.00
48041;BME280;33815;48.386;11.738;2023-05-19T00:18:16;97012.09;;;7.21;100.00
48041;BME280;33815;48.386;11.738;2023-05-19T00:20:42;97003.59;;;7.08;100.00
48041;BME280;33815;48.386;11.738;2023-05-19T00:23:07;97009.59;;;7.08;100.00
48041;BME280;33815;48.386;11.738;2023-05-19T00:25:32;96996.44;;;7.00;100.00
48041;BME280;33815;48.386;11.738;2023-05-19T00:27:58;97008.19;;;7.04;100.00
48041;BME280;33815;48.386;11.738;2023-05-19T00:30:23;97009.16;;;7.03;100.00
48041;BME280;33815;48.386;11.738;2023-05-19T00:32:49;97012.06;;;7.10;100.00
48041;BME280;33815;48.386;11.738;2023-05-19T00:35:14;96990.28;;;7.01;100.00
48041;BME280;33815;48.386;11.738;2023-05-19T00:37:40;96995.59;;;6.99;100.00
48041;BME280;33815;48.386;11.738;2023-05-19T00:40:06;96993.13;;;6.98;100.00
48041;BME280;33815;48.386;11.738;2023-05-19T00:42:33;96974.50;;;6.81;100.00
48041;BME280;33815;48.386;11.738;2023-05-19T00:44:58;96974.16;;;6.75;100.00
48041;BME280;33815;48.386;11.738;2023-05-19T00:47:24;96993.34;;;6.83;100.00
48041;BME280;33815;48.386;11.738;2023-05-19T00:49:49;96984.72;;;6.72;100.00
48041;BME280;33815;48.386;11.738;2023-05-19T00:52:15;96986.25;;;6.63;100.00
48041;BME280;33815;48.386;11.738;2023-05-19T00:54:40;96982.84;;;6.62;100.00
48041;BME280;33815;48.386;11.738;2023-05-19T00:57:05;96988.25;;;6.59;100.00
48041;BME280;33815;48.386;11.738;2023-05-19T00:59:31;96981.66;;;6.55;100.00
48041;BME280;33815;48.386;11.738;2023-05-19T01:01:57;96966.31;;;6.41;100.00
48041;BME280;33815;48.386;11.738;2023-05-19T01:04:23;96975.75;;;6.42;100.00
48041;BME280;33815;48.386;11.738;2023-05-19T01:06:50;96974.22;;;6.62;100.00
48041;BME280;33815;48.386;11.738;2023-05-19T01:09:22;96968.34;;;6.48;100.00
48041;BME280;33815;48.386;11.738;2023-05-19T01:11:49;96956.06;;;6.39;100.00
48041;BME280;33815;48.386;11.738;2023-05-19T01:14:15;96962.91;;;6.40;100.00
48041;BME280;33815;48.386;11.738;2023-05-19T01:16:57;96955.03;;;6.42;100.00
48041;BME280;33815;48.386;11.738;2023-05-19T01:20:06;96949.00;;;6.30;100.00
48041;BME280;33815;48.386;11.738;2023-05-19T01:25:45;96968.44;;;6.36;100.00
48041;BME280;33815;48.386;11.738;2023-05-19T01:31:03;96943.22;;;6.26;100.00
48041;BME280;33815;48.386;11.738;2023-05-19T01:33:32;96958.19;;;6.34;100.00
48041;BME280;33815;48.386;11.738;2023-05-19T01:35:59;96964.78;;;6.38;100.00
48041;BME280;33815;48.386;11.738;2023-05-19T01:38:28;96959.59;;;6.38;100.00
48041;BME280;33815;48.386;11.738;2023-05-19T01:40:55;96970.19;;;6.35;100.00
48041;BME280;33815;48.386;11.738;2023-05-19T01:43:23;96971.72;;;6.38;100.00
48041;BME280;33815;48.386;11.738;2023-05-19T01:45:49;96975.13;;;6.38;100.00
48041;BME280;33815;48.386;11.738;2023-05-19T01:48:16;96969.03;;;6.50;100.00
48041;BME280;33815;48.386;11.738;2023-05-19T01:50:42;96975.88;;;6.63;100.00
48041;BME280;33815;48.386;11.738;2023-05-19T01:53:08;96954.22;;;6.53;100.00
48041;BME280;33815;48.386;11.738;2023-05-19T01:55:35;96975.91;;;6.74;100.00
48041;BME280;33815;48.386;11.738;2023-05-19T01:58:16;96970.72;;;6.74;100.00
48041;BME280;33815;48.386;11.738;2023-05-19T02:00:50;96975.41;;;6.69;100.00
48041;BME280;33815;48.386;11.738;2023-05-19T02:08:30;96971.19;;;6.68;100.00
48041;BME280;33815;48.386;11.738;2023-05-19T02:11:20;96966.72;;;6.70;100.00
48041;BME280;33815;48.386;11.738;2023-05-19T02:13:49;96970.00;;;6.61;100.00
48041;BME280;33815;48.386;11.738;2023-05-19T02:16:15;96961.28;;;6.62;100.00
48041;BME280;33815;48.386;11.738;2023-05-19T02:18:41;96970.13;;;6.59;100.00
48041;BME280;33815;48.386;11.738;2023-05-19T02:21:09;96957.38;;;6.56;100.00
48041;BME280;33815;48.386;11.738;2023-05-19T02:23:38;96956.31;;;6.47;100.00
48041;BME280;33815;48.386;11.738;2023-05-19T02:26:03;96954.53;;;6.37;100.00
48041;BME280;33815;48.386;11.738;2023-05-19T02:28:28;96961.38;;;6.38;100.00
48041;BME280;33815;48.386;11.738;2023-05-19T02:30:54;96950.22;;;6.48;100.00
48041;BME280;33815;48.386;11.738;2023-05-19T02:33:19;96958.22;;;6.45;100.00
48041;BME280;33815;48.386;11.738;2023-05-19T02:35:46;96954.09;;;6.43;100.00
48041;BME280;33815;48.386;11.738;2023-05-19T02:38:12;96955.38;;;6.37;100.00
48041;BME280;33815;48.386;11.738;2023-05-19T02:40:37;96956.53;;;6.33;100.00
48041;BME280;33815;48.386;11.738;2023-05-19T02:43:02;96945.94;;;6.25;100.00
48041;BME280;33815;48.386;11.738;2023-05-19T02:45:27;96934.75;;;6.24;100.00
48041;BME280;33815;48.386;11.738;2023-05-19T02:47:53;96945.59;;;6.41;100.00
48041;BME280;33815;48.386;11.738;2023-05-19T02:50:18;96946.56;;;6.40;100.00
48041;BME280;33815;48.386;11.738;2023-05-19T02:52:44;96940.53;;;6.39;100.00
48041;BME280;33815;48.386;11.738;2023-05-19T02:55:09;96952.19;;;6.45;100.00
48041;BME280;33815;48.386;11.738;2023-05-19T02:57:40;96943.38;;;6.47;100.00
48041;BME280;33815;48.386;11.738;2023-05-19T03:00:06;96942.69;;;6.68;100.00
48041;BME280;33815;48.386;11.738;2023-05-19T03:02:32;96938.81;;;6.62;100.00
48041;BME280;33815;48.386;11.738;2023-05-19T03:04:58;96935.50;;;6.72;100.00
48041;BME280;33815;48.386;11.738;2023-05-19T03:07:25;96943.75;;;6.77;100.00
48041;BME280;33815;48.386;11.738;2023-05-19T03:09:50;96939.88;;;6.82;100.00
48041;BME280;33815;48.386;11.738;2023-05-19T03:12:16;96940.94;;;6.91;100.00
48041;BME280;33815;48.386;11.738;2023-05-19T03:14:41;96943.75;;;6.99;100.00
48041;BME280;33815;48.386;11.738;2023-05-19T03:17:08;96928.06;;;7.01;100.00
48041;BME280;33815;48.386;11.738;2023-05-19T03:19:34;96939.59;;;7.19;100.00
48041;BME280;33815;48.386;11.738;2023-05-19T03:22:00;96936.06;;;7.20;100.00
48041;BME280;33815;48.386;11.738;2023-05-19T03:24:25;96947.38;;;7.31;100.00
48041;BME280;33815;48.386;11.738;2023-05-19T03:26:50;96939.94;;;7.37;100.00
48041;BME280;33815;48.386;11.738;2023-05-19T03:29:16;96932.50;;;7.44;100.00
48041;BME280;33815;48.386;11.738;2023-05-19T03:31:41;96947.13;;;7.45;100.00
48041;BME280;33815;48.386;11.738;2023-05-19T03:34:06;96946.06;;;7.48;100.00
48041;BME280;33815;48.386;11.738;2023-05-19T03:36:31;96941.22;;;7.76;100.00
48041;BME280;33815;48.386;11.738;2023-05-19T03:39:03;96943.16;;;7.62;100.00
48041;BME280;33815;48.386;11.738;2023-05-19T03:41:28;96940.53;;;7.74;100.00
48041;BME280;33815;48.386;11.738;2023-05-19T03:43:54;96935.19;;;7.86;100.00
48041;BME280;33815;48.386;11.738;2023-05-19T03:46:19;96926.88;;;7.71;100.00
48041;BME280;33815;48.386;11.738;2023-05-19T03:48:44;96946.19;;;7.79;100.00
48041;BME280;33815;48.386;11.738;2023-05-19T03:51:09;96926.97;;;7.81;100.00
48041;BME280;33815;48.386;11.738;2023-05-19T03:53:34;96939.56;;;7.86;100.00
48041;BME280;33815;48.386;11.738;2023-05-19T03:56:00;96942.03;;;7.87;100.00
48041;BME280;33815;48.386;11.738;2023-05-19T03:58:25;96944.09;;;7.94;100.00
48041;BME280;33815;48.386;11.738;2023-05-19T04:00:50;96943.16;;;7.95;100.00
48041;BME280;33815;48.386;11.738;2023-05-19T04:03:16;96941.91;;;8.10;100.00
48041;BME280;33815;48.386;11.738;2023-05-19T04:05:41;96938.25;;;8.34;100.00
48041;BME280;33815;48.386;11.738;2023-05-19T04:08:06;96937.06;;;8.17;100.00
48041;BME280;33815;48.386;11.738;2023-05-19T04:10:32;96943.75;;;8.19;100.00
48041;BME280;33815;48.386;11.738;2023-05-19T04:12:57;96929.53;;;8.14;100.00
48041;BME280;33815;48.386;11.738;2023-05-19T04:15:22;96934.38;;;8.28;100.00
48041;BME280;33815;48.386;11.738;2023-05-19T04:17:48;96938.31;;;8.44;100.00
48041;BME280;33815;48.386;11.738;2023-05-19T04:20:13;96941.13;;;8.52;100.00
48041;BME280;33815;48.386;11.738;2023-05-19T04:22:38;96946.69;;;8.68;100.00
48041;BME280;33815;48.386;11.738;2023-05-19T04:25:04;96944.84;;;8.59;100.00
48041;BME280;33815;48.386;11.738;2023-05-19T04:27:29;96944.22;;;8.77;100.00
48041;BME280;33815;48.386;11.738;2023-05-19T04:29:56;96943.16;;;8.79;100.00
48041;BME280;33815;48.386;11.738;2023-05-19T04:32:22;96951.78;;;8.80;100.00
48041;BME280;33815;48.386;11.738;2023-05-19T04:34:47;96945.66;;;8.90;100.00
48041;BME280;33815;48.386;11.738;2023-05-19T04:37:12;96928.44;;;8.89;100.00
48041;BME280;33815;48.386;11.738;2023-05-19T04:39:39;96925.53;;;8.83;100.00
48041;BME280;33815;48.386;11.738;2023-05-19T04:42:07;96934.25;;;9.13;100.00
48041;BME280;33815;48.386;11.738;2023-05-19T04:44:34;96931.50;;;9.04;100.00
48041;BME280;33815;48.386;11.738;2023-05-19T04:47:00;96933.16;;;9.05;100.00
48041;BME280;33815;48.386;11.738;2023-05-19T04:49:25;96935.34;;;9.10;100.00
48041;BME280;33815;48.386;11.738;2023-05-19T04:51:50;96929.06;;;9.13;100.00
48041;BME280;33815;48.386;11.738;2023-05-19T04:54:17;96919.53;;;9.23;100.00
48041;BME280;33815;48.386;11.738;2023-05-19T04:56:42;96930.50;;;9.36;100.00
48041;BME280;33815;48.386;11.738;2023-05-19T04:59:08;96933.13;;;9.66;100.00
48041;BME280;33815;48.386;11.738;2023-05-19T05:01:34;96930.78;;;9.53;100.00
48041;BME280;33815;48.386;11.738;2023-05-19T05:04:04;96914.09;;;9.46;100.00
48041;BME280;33815;48.386;11.738;2023-05-19T05:06:29;96925.31;;;9.66;100.00
48041;BME280;33815;48.386;11.738;2023-05-19T05:08:55;96927.94;;;9.66;100.00
48041;BME280;33815;48.386;11.738;2023-05-19T05:11:21;96912.72;;;9.61;100.00
48041;BME280;33815;48.386;11.738;2023-05-19T05:13:47;96930.41;;;9.77;100.00
48041;BME280;33815;48.386;11.738;2023-05-19T05:16:12;96923.41;;;9.68;100.00
48041;BME280;33815;48.386;11.738;2023-05-19T05:18:38;96929.72;;;9.85;100.00
48041;BME280;33815;48.386;11.738;2023-05-19T05:21:05;96935.75;;;9.75;100.00
48041;BME280;33815;48.386;11.738;2023-05-19T05:23:30;96922.72;;;9.75;100.00
48041;BME280;33815;48.386;11.738;2023-05-19T05:25:56;96929.16;;;9.91;100.00
48041;BME280;33815;48.386;11.738;2023-05-19T05:28:21;96922.16;;;10.01;100.00
48041;BME280;33815;48.386;11.738;2023-05-19T05:30:47;96920.94;;;9.95;100.00
48041;BME280;33815;48.386;11.738;2023-05-19T05:33:13;96904.19;;;10.27;100.00
48041;BME280;33815;48.386;11.738;2023-05-19T05:35:38;96893.81;;;9.98;100.00
48041;BME280;33815;48.386;11.738;2023-05-19T05:38:04;96911.34;;;10.16;100.00
48041;BME280;33815;48.386;11.738;2023-05-19T05:40:29;96902.19;;;10.02;100.00
48041;BME280;33815;48.386;11.738;2023-05-19T05:42:55;96889.16;;;9.92;100.00
48041;BME280;33815;48.386;11.738;2023-05-19T05:45:23;96894.75;;;9.97;100.00
48041;BME280;33815;48.386;11.738;2023-05-19T05:47:49;96910.34;;;10.17;100.00
48041;BME280;33815;48.386;11.738;2023-05-19T05:50:15;96907.09;;;10.05;100.00
48041;BME280;33815;48.386;11.738;2023-05-19T05:52:45;96911.75;;;9.91;100.00
48041;BME280;33815;48.386;11.738;2023-05-19T05:55:11;96903.41;;;9.98;100.00
48041;BME280;33815;48.386;11.738;2023-05-19T05:57:36;96912.00;;;10.18;100.00
48041;BME280;33815;48.386;11.738;2023-05-19T06:00:03;96913.94;;;10.25;100.00
48041;BME280;33815;48.386;11.738;2023-05-19T06:02:34;96915.56;;;10.36;100.00
48041;BME280;33815;48.386;11.738;2023-05-19T06:05:00;96902.22;;;10.49;100.00
48041;BME280;33815;48.386;11.738;2023-05-19T06:07:26;96905.63;;;10.69;100.00
48041;BME280;33815;48.386;11.738;2023-05-19T06:09:51;96895.06;;;10.61;100.00
48041;BME280;33815;48.386;11.738;2023-05-19T06:12:17;96896.91;;;10.78;98.93
48041;BME280;33815;48.386;11.738;2023-05-19T06:14:42;96899.66;;;10.77;99.02
48041;BME280;33815;48.386;11.738;2023-05-19T06:17:07;96915.84;;;10.80;99.71
48041;BME280;33815;48.386;11.738;2023-05-19T06:19:32;96913.94;;;11.10;98.09
48041;BME280;33815;48.386;11.738;2023-05-19T06:21:58;96920.56;;;11.32;96.17
48041;BME280;33815;48.386;11.738;2023-05-19T06:24:23;96915.03;;;11.36;93.28
48041;BME280;33815;48.386;11.738;2023-05-19T06:26:48;96910.94;;;11.51;89.56
48041;BME280;33815;48.386;11.738;2023-05-19T06:29:13;96920.06;;;11.65;89.97
48041;BME280;33815;48.386;11.738;2023-05-19T06:31:39;96917.84;;;11.70;92.50
48041;BME280;33815;48.386;11.738;2023-05-19T06:34:04;96917.38;;;11.93;91.42
48041;BME280;33815;48.386;11.738;2023-05-19T06:36:29;96922.69;;;12.19;88.75
48041;BME280;33815;48.386;11.738;2023-05-19T06:38:55;96918.88;;;12.13;85.43
48041;BME280;33815;48.386;11.738;2023-05-19T06:41:20;96909.34;;;12.04;86.60
48041;BME280;33815;48.386;11.738;2023-05-19T06:43:45;96917.53;;;11.91;85.61
48041;BME280;33815;48.386;11.738;2023-05-19T06:46:11;96920.28;;;11.72;87.02
48041;BME280;33815;48.386;11.738;2023-05-19T06:48:37;96913.97;;;11.74;88.52
48041;BME280;33815;48.386;11.738;2023-05-19T06:51:02;96909.47;;;11.66;86.38
48041;BME280;33815;48.386;11.738;2023-05-19T06:53:28;96925.63;;;11.98;86.53
48041;BME280;33815;48.386;11.738;2023-05-19T06:55:53;96932.59;;;11.79;85.53
48041;BME280;33815;48.386;11.738;2023-05-19T06:58:18;96932.94;;;11.48;87.60
48041;BME280;33815;48.386;11.738;2023-05-19T07:00:43;96930.34;;;11.66;86.47
48041;BME280;33815;48.386;11.738;2023-05-19T07:03:09;96919.75;;;11.68;88.51
48041;BME280;33815;48.386;11.738;2023-05-19T07:05:34;96925.75;;;11.96;86.88
48041;BME280;33815;48.386;11.738;2023-05-19T07:08:00;96920.13;;;12.27;82.40
48041;BME280;33815;48.386;11.738;2023-05-19T07:10:26;96915.53;;;12.47;82.25
48041;BME280;33815;48.386;11.738;2023-05-19T07:12:51;96898.44;;;12.35;79.53
48041;BME280;33815;48.386;11.738;2023-05-19T07:15:16;96903.78;;;12.51;82.17
48041;BME280;33815;48.386;11.738;2023-05-19T07:17:41;96912.75;;;12.75;83.08
48041;BME280;33815;48.386;11.738;2023-05-19T07:20:07;96917.22;;;12.91;81.86
48041;BME280;33815;48.386;11.738;2023-05-19T07:22:36;96910.00;;;13.28;77.30
48041;BME280;33815;48.386;11.738;2023-05-19T07:25:04;96895.91;;;13.20;77.27
48041;BME280;33815;48.386;11.738;2023-05-19T07:27:29;96915.59;;;13.33;77.29
48041;BME280;33815;48.386;11.738;2023-05-19T07:29:54;96914.00;;;13.40;77.42
48041;BME280;33815;48.386;11.738;2023-05-19T07:32:20;96910.81;;;13.28;77.40
48041;BME280;33815;48.386;11.738;2023-05-19T07:34:45;96914.50;;;13.35;76.44
48041;BME280;33815;48.386;11.738;2023-05-19T07:37:10;96908.00;;;13.73;73.74
48041;BME280;33815;48.386;11.738;2023-05-19T07:39:35;96896.19;;;13.52;71.78
48041;BME280;33815;48.386;11.738;2023-05-19T07:42:01;96901.28;;;13.62;72.75
48041;BME280;33815;48.386;11.738;2023-05-19T07:44:26;96895.72;;;13.57;72.66
48041;BME280;33815;48.386;11.738;2023-05-19T07:46:53;96905.81;;;13.43;76.01
48041;BME280;33815;48.386;11.738;2023-05-19T07:49:18;96898.47;;;13.04;74.41
48041;BME280;33815;48.386;11.738;2023-05-19T07:51:43;96900.38;;;12.85;76.50
48041;BME280;33815;48.386;11.738;2023-05-19T07:54:09;96892.94;;;12.73;77.38
48041;BME280;33815;48.386;11.738;2023-05-19T07:56:34;96903.88;;;13.02;74.80
48041;BME280;33815;48.386;11.738;2023-05-19T07:59:00;96909.63;;;13.06;75.24
48041;BME280;33815;48.386;11.738;2023-05-19T08:01:25;96904.34;;;12.98;73.58
48041;BME280;33815;48.386;11.738;2023-05-19T08:03:50;96896.09;;;13.19;74.54
48041;BME280;33815;48.386;11.738;2023-05-19T08:06:15;96902.75;;;13.05;73.58
48041;BME280;33815;48.386;11.738;2023-05-19T08:08:41;96913.56;;;13.10;73.45
48041;BME280;33815;48.386;11.738;2023-05-19T08:11:06;96910.50;;;12.89;75.33
48041;BME280;33815;48.386;11.738;2023-05-19T08:13:32;96902.31;;;12.83;74.16
48041;BME280;33815;48.386;11.738;2023-05-19T08:15:58;96907.00;;;12.72;75.30
48041;BME280;33815;48.386;11.738;2023-05-19T08:18:24;96905.81;;;12.66;74.76
48041;BME280;33815;48.386;11.738;2023-05-19T08:20:50;96911.34;;;12.89;76.08
48041;BME280;33815;48.386;11.738;2023-05-19T08:23:15;96902.50;;;12.90;74.93
48041;BME280;33815;48.386;11.738;2023-05-19T08:25:42;96901.88;;;12.96;74.75
48041;BME280;33815;48.386;11.738;2023-05-19T08:28:07;96893.59;;;13.09;72.46
48041;BME280;33815;48.386;11.738;2023-05-19T08:30:32;96897.09;;;12.92;74.41
48041;BME280;33815;48.386;11.738;2023-05-19T08:32:58;96901.50;;;12.83;74.20
48041;BME280;33815;48.386;11.738;2023-05-19T08:35:23;96911.47;;;12.88;77.31
48041;BME280;33815;48.386;11.738;2023-05-19T08:37:48;96899.19;;;13.23;76.11
48041;BME280;33815;48.386;11.738;2023-05-19T08:40:15;96896.66;;;13.39;72.79
48041;BME280;33815;48.386;11.738;2023-05-19T08:42:41;96896.28;;;13.34;72.39
48041;BME280;33815;48.386;11.738;2023-05-19T08:45:07;96907.69;;;13.16;72.52
48041;BME280;33815;48.386;11.738;2023-05-19T08:47:32;96905.03;;;13.08;76.31
48041;BME280;33815;48.386;11.738;2023-05-19T08:50:03;96907.28;;;12.95;77.03
48041;BME280;33815;48.386;11.738;2023-05-19T08:52:52;96893.91;;;13.06;75.98
48041;BME280;33815;48.386;11.738;2023-05-19T08:57:51;96910.34;;;12.56;77.14
48041;BME280;33815;48.386;11.738;2023-05-19T09:00:18;96918.50;;;12.53;78.13
48041;BME280;33815;48.386;11.738;2023-05-19T09:02:44;96909.22;;;12.32;78.43
48041;BME280;33815;48.386;11.738;2023-05-19T09:05:11;96901.09;;;12.17;78.04
48041;BME280;33815;48.386;11.738;2023-05-19T09:07:37;96889.78;;;12.08;76.78
48041;BME280;33815;48.386;11.738;2023-05-19T09:10:02;96896.13;;;12.06;81.24
48041;BME280;33815;48.386;11.738;2023-05-19T09:12:28;96909.16;;;12.24;80.70
48041;BME280;33815;48.386;11.738;2023-05-19T09:14:54;96889.38;;;12.21;80.60
48041;BME280;33815;48.386;11.738;2023-05-19T09:17:19;96891.88;;;12.57;81.70
48041;BME280;33815;48.386;11.738;2023-05-19T09:19:45;96893.66;;;12.83;78.64
48041;BME280;33815;48.386;11.738;2023-05-19T09:22:15;96880.72;;;13.24;77.00
48041;BME280;33815;48.386;11.738;2023-05-19T09:24:40;96894.06;;;13.56;76.56
48041;BME280;33815;48.386;11.738;2023-05-19T09:27:06;96881.16;;;13.62;71.48
48041;BME280;33815;48.386;11.738;2023-05-19T09:29:32;96894.72;;;13.49;75.84
48041;BME280;33815;48.386;11.738;2023-05-19T09:31:57;96902.81;;;13.30;75.17
48041;BME280;33815;48.386;11.738;2023-05-19T09:34:25;96904.13;;;13.26;74.74
48041;BME280;33815;48.386;11.738;2023-05-19T09:36:52;96893.19;;;12.96;73.70
48041;BME280;33815;48.386;11.738;2023-05-19T09:39:18;96905.31;;;12.62;75.91
48041;BME280;33815;48.386;11.738;2023-05-19T09:41:44;96896.34;;;12.65;77.18
48041;BME280;33815;48.386;11.738;2023-05-19T09:44:21;96885.06;;;12.38;78.22
48041;BME280;33815;48.386;11.738;2023-05-19T09:46:48;96890.03;;;12.49;79.30
48041;BME280;33815;48.386;11.738;2023-05-19T09:49:21;96896.44;;;12.55;77.76
48041;BME280;33815;48.386;11.738;2023-05-19T09:51:55;96891.75;;;12.93;75.19
48041;BME280;33815;48.386;11.738;2023-05-19T09:54:22;96901.88;;;12.62;77.72
48041;BME280;33815;48.386;11.738;2023-05-19T09:57:01;96893.44;;;12.76;77.47
48041;BME280;33815;48.386;11.738;2023-05-19T09:59:28;96888.03;;;13.12;79.36
48041;BME280;33815;48.386;11.738;2023-05-19T10:01:55;96886.34;;;13.38;75.83
48041;BME280;33815;48.386;11.738;2023-05-19T10:04:25;96886.25;;;13.80;74.37
48041;BME280;33815;48.386;11.738;2023-05-19T10:06:52;96879.22;;;13.97;75.31
48041;BME280;33815;48.386;11.738;2023-05-19T10:09:25;96875.75;;;13.88;71.14
48041;BME280;33815;48.386;11.738;2023-05-19T10:11:55;96877.06;;;13.68;72.12
48041;BME280;33815;48.386;11.738;2023-05-19T10:14:25;96871.66;;;13.61;74.85
48041;BME280;33815;48.386;11.738;2023-05-19T10:16:51;96861.84;;;13.55;75.55
48041;BME280;33815;48.386;11.738;2023-05-19T10:19:22;96876.09;;;13.61;73.46
48041;BME280;33815;48.386;11.738;2023-05-19T10:21:48;96875.66;;;13.31;74.82
48041;BME280;33815;48.386;11.738;2023-05-19T10:24:13;96869.56;;;13.14;74.45
48041;BME280;33815;48.386;11.738;2023-05-19T10:26:43;96870.53;;;12.70;77.46
48041;BME280;33815;48.386;11.738;2023-05-19T10:29:10;96860.69;;;12.56;75.94
48041;BME280;33815;48.386;11.738;2023-05-19T10:31:37;96875.44;;;12.73;76.10
48041;BME280;33815;48.386;11.738;2023-05-19T10:36:53;96878.91;;;13.25;76.72
48041;BME280;33815;48.386;11.738;2023-05-19T10:39:28;96869.69;;;13.55;73.61
48041;BME280;33815;48.386;11.738;2023-05-19T10:42:12;96864.97;;;13.75;74.86
48041;BME280;33815;48.386;11.738;2023-05-19T10:47:28;96854.00;;;14.77;70.09
48041;BME280;33815;48.386;11.738;2023-05-19T10:49:54;96859.31;;;15.00;67.62
48041;BME280;33815;48.386;11.738;2023-05-19T10:52:23;96864.56;;;14.44;69.33
48041;BME280;33815;48.386;11.738;2023-05-19T10:54:53;96840.91;;;14.69;69.67
48041;BME280;33815;48.386;11.738;2023-05-19T10:57:24;96858.25;;;15.18;68.12
48041;BME280;33815;48.386;11.738;2023-05-19T10:59:51;96857.06;;;15.20;67.99
48041;BME280;33815;48.386;11.738;2023-05-19T11:02:39;96850.06;;;15.13;68.63
48041;BME280;33815;48.386;11.738;2023-05-19T11:05:14;96858.19;;;15.26;67.13
48041;BME280;33815;48.386;11.738;2023-05-19T11:07:43;96846.34;;;15.07;68.12
48041;BME280;33815;48.386;11.738;2023-05-19T11:10:22;96849.53;;;15.49;68.72
48041;BME280;33815;48.386;11.738;2023-05-19T11:12:48;96846.16;;;16.39;65.55
48041;BME280;33815;48.386;11.738;2023-05-19T11:15:14;96840.78;;;16.33;61.94
48041;BME280;33815;48.386;11.738;2023-05-19T11:17:41;96840.34;;;16.59;64.43
48041;BME280;33815;48.386;11.738;2023-05-19T11:20:08;96824.66;;;16.66;63.79
48041;BME280;33815;48.386;11.738;2023-05-19T11:22:36;96811.44;;;16.89;61.97
48041;BME280;33815;48.386;11.738;2023-05-19T11:25:03;96817.16;;;17.51;62.43
48041;BME280;33815;48.386;11.738;2023-05-19T11:27:32;96817.91;;;17.08;61.78
48041;BME280;33815;48.386;11.738;2023-05-19T11:29:58;96812.94;;;17.35;58.10
48041;BME280;33815;48.386;11.738;2023-05-19T11:32:28;96811.50;;;16.95;61.16
48041;BME280;33815;48.386;11.738;2023-05-19T11:34:55;96821.59;;;17.28;64.52
48041;BME280;33815;48.386;11.738;2023-05-19T11:37:20;96823.03;;;16.65;60.94
48041;BME280;33815;48.386;11.738;2023-05-19T11:39:46;96828.38;;;16.56;61.39
48041;BME280;33815;48.386;11.738;2023-05-19T11:42:12;96825.75;;;16.26;62.79
48041;BME280;33815;48.386;11.738;2023-05-19T11:44:38;96832.22;;;15.63;63.55
48041;BME280;33815;48.386;11.738;2023-05-19T11:47:05;96835.28;;;15.66;64.77
48041;BME280;33815;48.386;11.738;2023-05-19T11:49:31;96835.75;;;15.70;65.92
48041;BME280;33815;48.386;11.738;2023-05-19T11:51:58;96824.03;;;16.19;63.05
48041;BME280;33815;48.386;11.738;2023-05-19T11:54:32;96828.38;;;16.71;61.64
48041;BME280;33815;48.386;11.738;2023-05-19T11:57:00;96823.81;;;17.10;58.27
48041;BME280;33815;48.386;11.738;2023-05-19T11:59:29;96821.28;;;16.72;60.40
48041;BME280;33815;48.386;11.738;2023-05-19T12:01:55;96818.38;;;16.97;61.51
48041;BME280;33815;48.386;11.738;2023-05-19T12:04:20;96826.63;;;17.45;61.92
48041;BME280;33815;48.386;11.738;2023-05-19T12:06:47;96812.22;;;18.12;57.28
48041;BME280;33815;48.386;11.738;2023-05-19T12:09:13;96811.78;;;18.44;58.90
48041;BME280;33815;48.386;11.738;2023-05-19T12:11:39;96810.97;;;18.43;58.20
48041;BME280;33815;48.386;11.738;2023-05-19T12:14:04;96811.09;;;18.28;57.71
48041;BME280;33815;48.386;11.738;2023-05-19T12:16:33;96813.69;;;18.22;57.07
48041;BME280;33815;48.386;11.738;2023-05-19T12:18:59;96804.13;;;17.92;57.51
48041;BME280;33815;48.386;11.738;2023-05-19T12:21:24;96812.84;;;17.28;58.59
48041;BME280;33815;48.386;11.738;2023-05-19T12:23:50;96823.75;;;16.88;60.67
48041;BME280;33815;48.386;11.738;2023-05-19T12:26:15;96817.41;;;16.98;61.79
48041;BME280;33815;48.386;11.738;2023-05-19T12:28:44;96817.50;;;16.89;62.13
48041;BME280;33815;48.386;11.738;2023-05-19T12:31:10;96802.28;;;17.21;59.25
48041;BME280;33815;48.386;11.738;2023-05-19T12:33:35;96799.44;;;17.23;64.44
48041;BME280;33815;48.386;11.738;2023-05-19T12:36:01;96801.25;;;17.66;61.44
48041;BME280;33815;48.386;11.738;2023-05-19T12:38:26;96805.34;;;17.46;65.62
48041;BME280;33815;48.386;11.738;2023-05-19T12:40:51;96798.16;;;17.84;61.14
48041;BME280;33815;48.386;11.738;2023-05-19T12:43:23;96778.91;;;18.11;58.77
48041;BME280;33815;48.386;11.738;2023-05-19T12:45:49;96786.75;;;18.33;58.11
48041;BME280;33815;48.386;11.738;2023-05-19T12:48:14;96793.75;;;18.89;58.51
48041;BME280;33815;48.386;11.738;2023-05-19T12:50:41;96784.50;;;19.27;58.04
48041;BME280;33815;48.386;11.738;2023-05-19T12:53:13;96790.28;;;18.47;57.67
48041;BME280;33815;48.386;11.738;2023-05-19T12:55:39;96785.00;;;18.47;57.47
48041;BME280;33815;48.386;11.738;2023-05-19T12:58:08;96800.63;;;18.42;62.17
48041;BME280;33815;48.386;11.738;2023-05-19T13:00:39;96779.00;;;18.66;55.93
48041;BME280;33815;48.386;11.738;2023-05-19T13:03:06;96782.06;;;18.28;56.50
48041;BME280;33815;48.386;11.738;2023-05-19T13:05:39;96784.31;;;18.31;56.99
48041;BME280;33815;48.386;11.738;2023-05-19T13:08:09;96781.97;;;18.43;58.11